createdAt,value
2023-04-15T00:02:53.182Z,24.00
2023-04-15T00:06:14.846Z,24.73
2023-04-15T00:09:38.104Z,23.90
2023-04-15T00:12:59.714Z,25.17
2023-04-15T00:16:21.407Z,27.97
2023-04-15T00:19:44.339Z,26.30
2023-04-15T00:23:07.702Z,25.47
2023-04-15T00:26:30.688Z,25.30
2023-04-15T00:29:52.734Z,23.60
2023-04-15T00:33:14.612Z,24.03
2023-04-15T00:36:36.658Z,23.90
2023-04-15T00:39:58.870Z,24.53
2023-04-15T00:43:21.815Z,24.57
2023-04-15T00:46:45.477Z,24.83
2023-04-15T00:50:08.565Z,23.73
2023-04-15T00:53:30.618Z,23.40
2023-04-15T00:56:52.208Z,21.83
2023-04-15T01:00:16.737Z,20.90
2023-04-15T01:03:38.884Z,22.27
2023-04-15T01:07:00.494Z,22.20
2023-04-15T01:10:22.542Z,22.83
2023-04-15T01:13:44.542Z,22.57
2023-04-15T01:17:08.017Z,22.73
2023-04-15T01:20:30.598Z,22.37
2023-04-15T01:23:54.730Z,20.67
2023-04-15T01:27:18.246Z,22.10
2023-04-15T01:30:39.907Z,21.77
2023-04-15T01:34:02.380Z,21.30
2023-04-15T01:37:24.270Z,20.63
2023-04-15T01:40:46.093Z,21.13
2023-04-15T01:44:09.623Z,20.90
2023-04-15T01:47:31.503Z,20.47
2023-04-15T01:50:54.587Z,21.13
2023-04-15T01:54:16.315Z,20.83
2023-04-15T01:57:38.390Z,21.40
2023-04-15T02:01:04.042Z,21.63
2023-04-15T02:04:27.958Z,21.23
2023-04-15T02:07:50.277Z,20.73
2023-04-15T02:11:12.055Z,20.93
2023-04-15T02:14:33.994Z,20.17
2023-04-15T02:17:57.896Z,20.13
2023-04-15T02:21:19.689Z,19.63
2023-04-15T02:24:41.173Z,20.13
2023-04-15T02:28:06.236Z,20.38
2023-04-15T02:31:28.572Z,19.83
2023-04-15T02:34:51.763Z,19.33
2023-04-15T02:38:14.323Z,20.23
2023-04-15T02:41:36.706Z,19.67
2023-04-15T02:44:59.420Z,19.53
2023-04-15T02:48:26.194Z,19.03
2023-04-15T02:51:49.682Z,19.63
2023-04-15T02:55:11.096Z,19.30
2023-04-15T02:58:32.788Z,18.73
2023-04-15T03:01:55.495Z,18.47
2023-04-15T03:05:17.426Z,18.33
2023-04-15T03:08:45.786Z,19.00
2023-04-15T03:12:08.169Z,19.30
2023-04-15T03:15:29.770Z,18.77
2023-04-15T03:18:51.818Z,18.40
2023-04-15T03:22:15.547Z,18.30
2023-04-15T03:25:38.719Z,18.50
2023-04-15T03:29:02.097Z,18.10
2023-04-15T03:32:24.117Z,17.42
2023-04-15T03:35:45.784Z,17.97
2023-04-15T03:39:08.077Z,18.60
2023-04-15T03:42:31.091Z,17.33
2023-04-15T03:45:52.839Z,16.92
2023-04-15T03:49:15.458Z,17.27
2023-04-15T03:52:37.552Z,17.02
2023-04-15T03:55:59.651Z,15.93
2023-04-15T03:59:22.792Z,16.43
2023-04-15T04:02:46.084Z,16.40
2023-04-15T04:06:08.108Z,17.00
2023-04-15T04:09:29.926Z,15.93
2023-04-15T04:12:51.204Z,15.17
2023-04-15T04:16:14.469Z,15.27
2023-04-15T04:19:35.781Z,16.52
2023-04-15T04:22:57.593Z,15.43
2023-04-15T04:26:19.843Z,15.63
2023-04-15T04:29:41.474Z,15.37
2023-04-15T04:33:05.351Z,15.33
2023-04-15T04:36:27.834Z,14.45
2023-04-15T04:39:49.478Z,14.55
2023-04-15T04:43:11.348Z,13.63
2023-04-15T04:46:33.639Z,13.90
2023-04-15T04:49:56.498Z,12.80
2023-04-15T04:53:18.319Z,11.73
2023-04-15T04:56:39.954Z,12.25
2023-04-15T05:00:01.962Z,12.45
2023-04-15T05:03:23.825Z,11.90
2023-04-15T05:06:47.295Z,11.80
2023-04-15T05:10:10.463Z,11.53
2023-04-15T05:13:32.017Z,11.82
2023-04-15T05:16:53.717Z,11.50
2023-04-15T05:20:15.819Z,11.77
2023-04-15T05:23:38.741Z,12.10
2023-04-15T05:27:01.344Z,11.13
2023-04-15T05:30:23.443Z,11.07
2023-04-15T05:33:45.620Z,11.10
2023-04-15T05:37:07.938Z,11.73
2023-04-15T05:40:31.625Z,11.73
2023-04-15T05:43:53.166Z,11.30
2023-04-15T05:47:15.171Z,11.98
2023-04-15T05:50:36.945Z,11.00
2023-04-15T05:53:58.593Z,11.02
2023-04-15T05:57:22.369Z,11.55
2023-04-15T06:00:43.858Z,11.13
2023-04-15T06:04:05.355Z,11.38
2023-04-15T06:07:27.502Z,11.60
2023-04-15T06:10:48.899Z,11.57
2023-04-15T06:14:12.017Z,11.63
2023-04-15T06:17:33.491Z,10.55
2023-04-15T06:20:55.418Z,11.90
2023-04-15T06:24:16.790Z,11.52
2023-04-15T06:27:38.687Z,12.15
2023-04-15T06:31:02.867Z,12.23
2023-04-15T06:34:24.275Z,11.90
2023-04-15T06:37:45.638Z,11.82
2023-04-15T06:41:07.345Z,11.55
2023-04-15T06:44:28.914Z,11.40
2023-04-15T06:47:51.777Z,11.65
2023-04-15T06:51:13.765Z,11.82
2023-04-15T06:54:35.510Z,11.73
2023-04-15T06:57:57.321Z,12.05
2023-04-15T07:01:19.330Z,11.70
2023-04-15T07:04:42.574Z,11.50
2023-04-15T07:08:04.076Z,11.70
2023-04-15T07:11:27.128Z,11.88
2023-04-15T07:14:49.510Z,11.57
2023-04-15T07:18:11.249Z,11.57
2023-04-15T07:21:34.119Z,11.63
2023-04-15T07:24:56.097Z,11.57
2023-04-15T07:28:17.634Z,12.30
2023-04-15T07:31:39.138Z,11.13
2023-04-15T07:35:01.508Z,10.82
2023-04-15T07:38:25.150Z,11.40
2023-04-15T07:41:46.728Z,11.75
2023-04-15T07:45:09.401Z,12.05
2023-04-15T07:48:31.486Z,11.20
2023-04-15T07:51:53.317Z,12.25
2023-04-15T07:55:19.407Z,12.02
2023-04-15T07:58:41.475Z,11.82
2023-04-15T08:02:03.482Z,11.50
2023-04-15T08:05:25.785Z,11.07
2023-04-15T08:08:47.634Z,12.27
2023-04-15T08:12:13.396Z,12.18
2023-04-15T08:15:35.382Z,11.20
2023-04-15T08:18:58.292Z,12.40
2023-04-15T08:22:21.333Z,12.38
2023-04-15T08:25:44.368Z,11.75
2023-04-15T08:29:08.093Z,12.32
2023-04-15T08:32:29.659Z,12.35
2023-04-15T08:35:51.642Z,12.02
2023-04-15T08:39:12.898Z,11.25
2023-04-15T08:42:43.029Z,12.07
2023-04-15T08:46:08.490Z,11.90
2023-04-15T08:49:31.110Z,11.85
2023-04-15T08:52:55.856Z,11.63
2023-04-15T08:56:17.923Z,11.95
2023-04-15T08:59:40.760Z,12.85
2023-04-15T09:03:05.843Z,12.80
2023-04-15T09:06:28.061Z,11.57
2023-04-15T09:09:51.666Z,11.85
2023-04-15T09:13:13.620Z,12.27
2023-04-15T09:16:59.563Z,11.85
2023-04-15T09:20:23.083Z,10.85
2023-04-15T09:23:56.356Z,11.38
2023-04-15T09:27:18.328Z,12.13
2023-04-15T09:30:40.095Z,11.30
2023-04-15T09:34:02.907Z,11.60
2023-04-15T09:37:37.398Z,11.45
2023-04-15T09:40:59.961Z,11.27
2023-04-15T09:44:24.695Z,11.32
2023-04-15T09:47:46.887Z,10.70
2023-04-15T09:51:08.839Z,11.15
2023-04-15T09:54:39.599Z,11.10
2023-04-15T09:58:01.343Z,11.32
2023-04-15T10:01:23.291Z,10.80
2023-04-15T10:04:47.896Z,11.27
2023-04-15T10:08:10.880Z,11.50
2023-04-15T10:11:35.332Z,11.95
2023-04-15T10:15:00.678Z,10.95
2023-04-15T10:18:24.816Z,11.40
2023-04-15T10:21:47.065Z,11.75
2023-04-15T10:25:09.929Z,11.73
2023-04-15T10:28:33.500Z,11.98
2023-04-15T10:31:56.894Z,11.35
2023-04-15T10:35:19.663Z,11.82
2023-04-15T10:38:43.232Z,11.30
2023-04-15T10:42:09.194Z,12.05
2023-04-15T10:45:36.859Z,12.13
2023-04-15T10:48:58.630Z,11.85
2023-04-15T10:52:28.642Z,10.98
2023-04-15T10:55:50.319Z,11.00
2023-04-15T10:59:12.976Z,11.75
2023-04-15T11:02:47.631Z,11.40
2023-04-15T11:06:10.604Z,11.60
2023-04-15T11:09:33.793Z,11.55
2023-04-15T11:12:59.301Z,12.05
2023-04-15T11:16:21.564Z,11.75
2023-04-15T11:19:45.052Z,13.35
2023-04-15T11:23:14.419Z,13.77
2023-04-15T11:26:37.658Z,13.52
2023-04-15T11:29:59.314Z,12.95
2023-04-15T11:33:21.000Z,12.85
2023-04-15T11:36:45.160Z,12.88
2023-04-15T11:40:09.048Z,13.15
2023-04-15T11:43:35.355Z,13.02
2023-04-15T11:46:57.567Z,12.93
2023-04-15T11:50:20.829Z,12.32
2023-04-15T11:53:46.096Z,12.57
2023-04-15T11:57:08.803Z,12.85
2023-04-15T12:00:30.706Z,13.07
2023-04-15T12:03:52.467Z,12.15
2023-04-15T12:07:13.873Z,13.80
2023-04-15T12:10:37.274Z,12.57
2023-04-15T12:14:01.053Z,12.27
2023-04-15T12:17:24.805Z,11.98
2023-04-15T12:20:47.462Z,11.82
2023-04-15T12:24:11.390Z,11.07
2023-04-15T12:27:36.283Z,10.90
2023-04-15T12:30:57.913Z,10.88
2023-04-15T12:34:20.177Z,11.50
2023-04-15T12:37:41.830Z,11.35
2023-04-15T12:41:03.877Z,10.02
2023-04-15T12:44:28.060Z,10.35
2023-04-15T12:47:49.624Z,11.45
2023-04-15T12:51:10.958Z,10.80
2023-04-15T12:54:33.525Z,10.52
2023-04-15T12:57:55.389Z,10.48
2023-04-15T13:01:18.582Z,10.07
2023-04-15T13:04:40.277Z,10.35
2023-04-15T13:08:02.467Z,10.05
2023-04-15T13:11:24.433Z,10.75
2023-04-15T13:14:46.543Z,10.15
2023-04-15T13:18:09.723Z,9.05
2023-04-15T13:21:35.130Z,9.27
2023-04-15T13:24:57.662Z,9.15
2023-04-15T13:28:19.600Z,9.18
2023-04-15T13:31:41.445Z,8.45
2023-04-15T13:35:05.265Z,7.90
2023-04-15T13:38:26.778Z,7.97
2023-04-15T13:41:48.518Z,8.35
2023-04-15T13:45:11.906Z,7.95
2023-04-15T13:48:33.474Z,8.40
2023-04-15T13:51:56.602Z,8.00
2023-04-15T13:55:21.122Z,8.32
2023-04-15T13:58:43.888Z,8.02
2023-04-15T14:02:05.372Z,8.55
2023-04-15T14:05:27.074Z,9.23
2023-04-15T14:08:50.970Z,8.18
2023-04-15T14:12:12.507Z,8.60
2023-04-15T14:15:34.274Z,8.63
2023-04-15T14:18:56.184Z,8.23
2023-04-15T14:22:18.955Z,8.57
2023-04-15T14:25:41.920Z,8.57
2023-04-15T14:29:04.179Z,7.63
2023-04-15T14:32:26.686Z,8.02
2023-04-15T14:35:48.422Z,7.78
2023-04-15T14:39:10.555Z,7.90
2023-04-15T14:42:33.362Z,8.02
2023-04-15T14:45:55.437Z,8.40
2023-04-15T14:49:17.056Z,8.35
2023-04-15T14:52:39.724Z,7.93
2023-04-15T14:56:01.475Z,7.70
2023-04-15T14:59:25.112Z,7.80
2023-04-15T15:02:47.523Z,7.38
2023-04-15T15:06:09.499Z,6.80
2023-04-15T15:09:31.762Z,7.50
2023-04-15T15:12:54.396Z,7.20
2023-04-15T15:16:17.157Z,7.45
2023-04-15T15:19:39.183Z,6.38
2023-04-15T15:23:02.122Z,5.82
2023-04-15T15:26:24.221Z,6.20
2023-04-15T15:29:46.276Z,5.93
2023-04-15T15:33:09.366Z,6.30
2023-04-15T15:36:31.497Z,6.40
2023-04-15T15:39:53.835Z,7.38
2023-04-15T15:43:15.778Z,6.85
2023-04-15T15:46:40.176Z,7.18
2023-04-15T15:50:06.024Z,7.65
2023-04-15T15:53:28.343Z,7.88
2023-04-15T15:56:50.769Z,7.80
2023-04-15T16:00:13.846Z,7.75
2023-04-15T16:03:35.509Z,8.02
2023-04-15T16:06:58.929Z,7.88
2023-04-15T16:10:20.789Z,8.93
2023-04-15T16:13:42.637Z,8.60
2023-04-15T16:17:04.656Z,10.02
2023-04-15T16:20:26.576Z,9.63
2023-04-15T16:23:49.505Z,10.00
2023-04-15T16:27:16.038Z,11.50
2023-04-15T16:30:39.262Z,16.02
2023-04-15T16:34:00.490Z,12.20
2023-04-15T16:37:22.504Z,11.73
2023-04-15T16:40:46.084Z,12.65
2023-04-15T16:44:09.071Z,13.30
2023-04-15T16:47:31.025Z,12.98
2023-04-15T16:50:53.027Z,12.88
2023-04-15T16:54:14.725Z,12.02
2023-04-15T16:58:00.970Z,13.32
2023-04-15T17:01:19.639Z,12.30
2023-04-15T17:04:41.716Z,12.38
2023-04-15T17:08:03.881Z,12.95
2023-04-15T17:11:26.128Z,12.77
2023-04-15T17:14:49.296Z,12.68
2023-04-15T17:18:12.131Z,13.55
2023-04-15T17:21:33.934Z,12.43
2023-04-15T17:24:55.301Z,12.27
2023-04-15T17:28:17.239Z,12.70
2023-04-15T17:31:40.723Z,12.82
2023-04-15T17:35:02.868Z,12.80
2023-04-15T17:38:24.729Z,13.63
2023-04-15T17:41:46.606Z,12.35
2023-04-15T17:45:09.222Z,13.95
2023-04-15T17:48:32.294Z,13.93
2023-04-15T17:51:55.493Z,13.82
2023-04-15T17:55:17.081Z,13.90
2023-04-15T17:58:39.942Z,13.93
2023-04-15T18:02:01.401Z,14.18
2023-04-15T18:05:24.751Z,14.35
2023-04-15T18:08:46.458Z,13.77
2023-04-15T18:12:09.285Z,12.15
2023-04-15T18:15:31.999Z,13.48
2023-04-15T18:18:53.729Z,12.50
2023-04-15T18:22:16.871Z,12.75
2023-04-15T18:25:38.980Z,11.98
2023-04-15T18:29:00.282Z,11.70
2023-04-15T18:32:21.784Z,11.75
2023-04-15T18:35:43.826Z,13.02
2023-04-15T18:39:06.957Z,12.50
2023-04-15T18:42:29.268Z,11.93
2023-04-15T18:45:52.383Z,12.68
2023-04-15T18:49:14.249Z,11.57
2023-04-15T18:52:36.126Z,10.93
2023-04-15T18:56:01.713Z,11.82
2023-04-15T18:59:29.729Z,11.60
2023-04-15T19:02:52.618Z,11.98
2023-04-15T19:06:14.866Z,11.27
2023-04-15T19:09:36.877Z,11.73
2023-04-15T19:12:59.970Z,11.43
2023-04-15T19:16:21.802Z,11.70
2023-04-15T19:19:43.704Z,11.88
2023-04-15T19:23:05.589Z,12.27
2023-04-15T19:26:27.641Z,11.70
2023-04-15T19:29:50.643Z,11.52
2023-04-15T19:33:13.454Z,11.98
2023-04-15T19:36:34.814Z,12.27
2023-04-15T19:39:56.879Z,12.30
2023-04-15T19:43:18.299Z,12.93
2023-04-15T19:46:44.104Z,12.73
2023-04-15T19:50:07.869Z,12.13
2023-04-15T19:53:30.792Z,12.48
2023-04-15T19:56:52.578Z,12.27
2023-04-15T20:00:14.933Z,12.73
2023-04-15T20:03:37.985Z,12.40
2023-04-15T20:06:59.665Z,12.75
2023-04-15T20:10:21.602Z,12.68
2023-04-15T20:13:43.255Z,13.57
2023-04-15T20:17:04.595Z,13.38
2023-04-15T20:20:28.225Z,12.93
2023-04-15T20:23:49.831Z,13.75
2023-04-15T20:27:11.620Z,14.35
2023-04-15T20:30:33.540Z,14.63
2023-04-15T20:33:55.361Z,14.10
2023-04-15T20:37:19.262Z,14.38
2023-04-15T20:40:41.917Z,15.40
2023-04-15T20:44:03.568Z,15.32
2023-04-15T20:47:24.888Z,14.65
2023-04-15T20:50:46.989Z,14.38
2023-04-15T20:54:10.586Z,15.45
2023-04-15T20:57:32.514Z,14.75
2023-04-15T21:00:55.395Z,14.73
2023-04-15T21:04:17.366Z,15.00
2023-04-15T21:07:38.839Z,15.52
2023-04-15T21:11:01.757Z,15.93
2023-04-15T21:14:23.208Z,15.90
2023-04-15T21:17:45.052Z,14.68
2023-04-15T21:21:06.791Z,14.43
2023-04-15T21:24:29.094Z,14.95
2023-04-15T21:27:52.065Z,15.65
2023-04-15T21:31:13.498Z,16.13
2023-04-15T21:34:35.552Z,14.98
2023-04-15T21:37:57.222Z,16.25
2023-04-15T21:41:18.611Z,15.55
2023-04-15T21:44:41.777Z,15.50
2023-04-15T21:48:07.844Z,16.75
2023-04-15T21:51:31.479Z,16.27
2023-04-15T21:54:52.986Z,15.77
2023-04-15T21:58:14.809Z,15.35
2023-04-15T22:01:38.079Z,15.25
2023-04-15T22:04:59.919Z,15.88
2023-04-15T22:08:21.978Z,15.95
2023-04-15T22:11:44.034Z,15.65
2023-04-15T22:15:06.910Z,15.45
2023-04-15T22:18:30.395Z,15.68
2023-04-15T22:21:52.255Z,15.13
2023-04-15T22:25:13.874Z,15.77
2023-04-15T22:28:35.606Z,16.00
2023-04-15T22:31:57.254Z,15.88
2023-04-15T22:35:20.184Z,16.25
2023-04-15T22:38:41.970Z,16.25
2023-04-15T22:42:03.841Z,16.05
2023-04-15T22:45:25.822Z,15.65
2023-04-15T22:48:47.461Z,15.73
2023-04-15T22:52:12.425Z,15.95
2023-04-15T22:55:45.901Z,16.65
2023-04-15T22:59:07.728Z,16.00
2023-04-15T23:02:30.190Z,16.60
2023-04-15T23:05:52.054Z,15.02
2023-04-15T23:09:15.537Z,15.52
2023-04-15T23:12:36.983Z,15.63
2023-04-15T23:15:58.812Z,15.48
2023-04-15T23:19:20.598Z,14.45
2023-04-15T23:22:43.235Z,15.40
2023-04-15T23:26:08.731Z,15.05
2023-04-15T23:29:30.406Z,15.38
2023-04-15T23:32:52.394Z,16.48
2023-04-15T23:36:13.865Z,17.30
2023-04-15T23:39:35.235Z,16.05
2023-04-15T23:42:57.952Z,16.40
2023-04-15T23:46:19.513Z,15.63
2023-04-15T23:49:41.729Z,15.80
2023-04-15T23:53:03.575Z,16.08
2023-04-15T23:56:24.911Z,15.23
2023-04-15T23:59:48.331Z,15.18
